sensor_id;sensor_type;location;lat;lon;timestamp;pressure;altitude;pressure_sealevel;temperature;humidity
22862;BME280;11598;50.652;6.172;2023-09-07T00:00:59;96861.94;;;17.02;82.98
22862;BME280;11598;50.652;6.172;2023-09-07T00:11:05;96857.75;;;17.09;82.03
22862;BME280;11598;50.652;6.172;2023-09-07T00:21:06;96837.16;;;17.15;81.37
22862;BME280;11598;50.652;6.172;2023-09-07T00:31:06;96829.88;;;17.08;81.45
22862;BME280;11598;50.652;6.172;2023-09-07T00:41:07;96822.53;;;17.12;80.54
22862;BME280;11598;50.652;6.172;2023-09-07T00:51:07;96820.38;;;17.25;80.19
22862;BME280;11598;50.652;6.172;2023-09-07T01:01:07;96814.31;;;17.25;80.70
22862;BME280;11598;50.652;6.172;2023-09-07T01:11:15;96808.69;;;17.20;80.43
22862;BME280;11598;50.652;6.172;2023-09-07T01:21:15;96806.72;;;17.22;80.29
22862;BME280;11598;50.652;6.172;2023-09-07T01:31:17;96796.50;;;17.19;79.96
22862;BME280;11598;50.652;6.172;2023-09-07T01:41:18;96791.84;;;17.13;79.44
22862;BME280;11598;50.652;6.172;2023-09-07T01:51:18;96786.44;;;17.14;79.65
22862;BME280;11598;50.652;6.172;2023-09-07T02:01:25;96778.44;;;17.16;78.30
22862;BME280;11598;50.652;6.172;2023-09-07T02:11:26;96769.53;;;17.26;76.68
22862;BME280;11598;50.652;6.172;2023-09-07T02:21:26;96760.47;;;17.39;75.08
22862;BME280;11598;50.652;6.172;2023-09-07T02:31:27;96758.03;;;17.27;75.00
22862;BME280;11598;50.652;6.172;2023-09-07T02:41:27;96765.91;;;17.27;74.06
22862;BME280;11598;50.652;6.172;2023-09-07T02:51:27;96772.97;;;17.27;73.17
22862;BME280;11598;50.652;6.172;2023-09-07T03:01:27;96768.09;;;17.32;72.27
22862;BME280;11598;50.652;6.172;2023-09-07T03:11:29;96771.47;;;17.24;71.89
22862;BME280;11598;50.652;6.172;2023-09-07T03:21:34;96764.41;;;17.25;72.18
22862;BME280;11598;50.652;6.172;2023-09-07T03:31:34;96757.97;;;17.37;71.59
22862;BME280;11598;50.652;6.172;2023-09-07T03:41:34;96760.00;;;17.43;71.08
22862;BME280;11598;50.652;6.172;2023-09-07T03:51:35;96766.69;;;17.56;70.73
22862;BME280;11598;50.652;6.172;2023-09-07T04:01:35;96757.75;;;17.48;71.08
22862;BME280;11598;50.652;6.172;2023-09-07T04:11:36;96751.22;;;17.35;70.75
22862;BME280;11598;50.652;6.172;2023-09-07T04:21:38;96750.84;;;17.29;70.34
22862;BME280;11598;50.652;6.172;2023-09-07T04:31:38;96742.59;;;17.24;71.60
22862;BME280;11598;50.652;6.172;2023-09-07T04:41:39;96742.72;;;17.23;72.77
22862;BME280;11598;50.652;6.172;2023-09-07T04:51:39;96741.38;;;17.19;73.82
22862;BME280;11598;50.652;6.172;2023-09-07T05:01:40;96743.47;;;17.15;74.16
22862;BME280;11598;50.652;6.172;2023-09-07T05:11:40;96758.94;;;17.18;74.16
22862;BME280;11598;50.652;6.172;2023-09-07T05:21:41;96750.81;;;17.11;75.27
22862;BME280;11598;50.652;6.172;2023-09-07T05:31:41;96757.97;;;17.19;75.86
22862;BME280;11598;50.652;6.172;2023-09-07T05:41:41;96764.47;;;17.33;75.80
22862;BME280;11598;50.652;6.172;2023-09-07T05:51:42;96772.69;;;17.66;75.80
22862;BME280;11598;50.652;6.172;2023-09-07T06:01:42;96775.69;;;18.07;74.85
22862;BME280;11598;50.652;6.172;2023-09-07T06:11:43;96774.81;;;18.50;74.01
22862;BME280;11598;50.652;6.172;2023-09-07T06:21:43;96794.97;;;18.94;73.32
22862;BME280;11598;50.652;6.172;2023-09-07T06:31:43;96789.03;;;19.42;72.51
22862;BME280;11598;50.652;6.172;2023-09-07T06:41:46;96793.25;;;19.94;71.35
22862;BME280;11598;50.652;6.172;2023-09-07T06:51:46;96813.19;;;20.46;69.83
22862;BME280;11598;50.652;6.172;2023-09-07T07:01:47;96819.50;;;20.93;68.43
22862;BME280;11598;50.652;6.172;2023-09-07T07:11:47;96822.31;;;21.93;67.40
22862;BME280;11598;50.652;6.172;2023-09-07T07:21:48;96826.19;;;22.66;65.60
22862;BME280;11598;50.652;6.172;2023-09-07T07:31:48;96832.63;;;23.16;63.38
22862;BME280;11598;50.652;6.172;2023-09-07T07:41:48;96827.59;;;23.07;64.00
22862;BME280;11598;50.652;6.172;2023-09-07T07:51:49;96842.38;;;22.86;63.62
22862;BME280;11598;50.652;6.172;2023-09-07T08:01:49;96848.84;;;22.69;64.13
22862;BME280;11598;50.652;6.172;2023-09-07T08:11:50;96851.41;;;22.77;63.03
22862;BME280;11598;50.652;6.172;2023-09-07T08:21:51;96847.47;;;22.73;63.82
22862;BME280;11598;50.652;6.172;2023-09-07T08:31:52;96850.59;;;22.91;63.70
22862;BME280;11598;50.652;6.172;2023-09-07T08:41:52;96854.72;;;23.38;62.18
22862;BME280;11598;50.652;6.172;2023-09-07T08:51:53;96845.13;;;23.23;61.48
22862;BME280;11598;50.652;6.172;2023-09-07T09:01:57;96839.94;;;22.99;62.21
22862;BME280;11598;50.652;6.172;2023-09-07T09:12:11;96845.59;;;22.96;63.03
22862;BME280;11598;50.652;6.172;2023-09-07T09:22:12;96836.63;;;22.97;61.77
22862;BME280;11598;50.652;6.172;2023-09-07T09:32:13;96843.13;;;23.25;62.30
22862;BME280;11598;50.652;6.172;2023-09-07T09:42:16;96833.59;;;23.30;61.18
22862;BME280;11598;50.652;6.172;2023-09-07T09:52:17;96823.72;;;23.39;61.19
22862;BME280;11598;50.652;6.172;2023-09-07T10:02:17;96822.22;;;23.66;57.99
22862;BME280;11598;50.652;6.172;2023-09-07T10:12:27;96802.91;;;24.15;55.84
22862;BME280;11598;50.652;6.172;2023-09-07T10:22:27;96807.03;;;24.18;56.21
22862;BME280;11598;50.652;6.172;2023-09-07T10:32:40;96805.31;;;24.10;57.56
22862;BME280;11598;50.652;6.172;2023-09-07T10:42:41;96791.63;;;24.35;55.77
22862;BME280;11598;50.652;6.172;2023-09-07T10:52:42;96784.44;;;24.29;56.10
22862;BME280;11598;50.652;6.172;2023-09-07T11:02:43;96784.88;;;24.32;57.38
22862;BME280;11598;50.652;6.172;2023-09-07T11:12:43;96780.22;;;24.69;56.14
22862;BME280;11598;50.652;6.172;2023-09-07T11:22:44;96772.34;;;24.82;53.22
22862;BME280;11598;50.652;6.172;2023-09-07T11:32:44;96763.44;;;25.03;52.59
22862;BME280;11598;50.652;6.172;2023-09-07T11:42:46;96762.00;;;25.42;53.40
22862;BME280;11598;50.652;6.172;2023-09-07T11:52:46;96768.13;;;25.43;52.45
22862;BME280;11598;50.652;6.172;2023-09-07T12:02:47;96757.06;;;25.39;54.83
22862;BME280;11598;50.652;6.172;2023-09-07T12:12:47;96751.34;;;25.49;53.91
22862;BME280;11598;50.652;6.172;2023-09-07T12:22:47;96757.50;;;25.56;52.33
22862;BME280;11598;50.652;6.172;2023-09-07T12:32:49;96754.06;;;25.69;47.49
22862;BME280;11598;50.652;6.172;2023-09-07T12:42:50;96744.06;;;25.78;48.16
22862;BME280;11598;50.652;6.172;2023-09-07T12:52:50;96736.91;;;26.05;48.32
22862;BME280;11598;50.652;6.172;2023-09-07T13:02:50;96735.84;;;25.86;48.60
22862;BME280;11598;50.652;6.172;2023-09-07T13:12:51;96726.25;;;25.85;49.31
22862;BME280;11598;50.652;6.172;2023-09-07T13:22:51;96709.28;;;25.92;47.79
22862;BME280;11598;50.652;6.172;2023-09-07T13:32:52;96713.34;;;26.22;47.17
22862;BME280;11598;50.652;6.172;2023-09-07T13:42:53;96700.44;;;26.25;46.39
22862;BME280;11598;50.652;6.172;2023-09-07T13:52:53;96696.78;;;25.93;43.69
22862;BME280;11598;50.652;6.172;2023-09-07T14:02:53;96695.50;;;25.62;42.18
22862;BME280;11598;50.652;6.172;2023-09-07T14:12:54;96697.97;;;25.57;41.97
22862;BME280;11598;50.652;6.172;2023-09-07T14:22:54;96697.56;;;25.73;39.74
22862;BME280;11598;50.652;6.172;2023-09-07T14:32:57;96698.38;;;25.47;42.16
22862;BME280;11598;50.652;6.172;2023-09-07T14:42:57;96701.03;;;25.67;43.53
22862;BME280;11598;50.652;6.172;2023-09-07T14:52:58;96697.41;;;25.88;44.30
22862;BME280;11598;50.652;6.172;2023-09-07T15:02:59;96700.06;;;26.08;44.12
22862;BME280;11598;50.652;6.172;2023-09-07T15:13:00;96686.94;;;26.07;42.99
22862;BME280;11598;50.652;6.172;2023-09-07T15:23:04;96681.22;;;25.97;42.54
22862;BME280;11598;50.652;6.172;2023-09-07T15:33:04;96690.41;;;25.81;43.33
22862;BME280;11598;50.652;6.172;2023-09-07T15:43:05;96685.91;;;25.55;44.76
22862;BME280;11598;50.652;6.172;2023-09-07T15:53:07;96687.09;;;25.45;45.97
22862;BME280;11598;50.652;6.172;2023-09-07T16:03:08;96671.59;;;25.76;45.09
22862;BME280;11598;50.652;6.172;2023-09-07T16:13:09;96673.59;;;25.47;47.57
22862;BME280;11598;50.652;6.172;2023-09-07T16:23:10;96674.25;;;24.94;47.96
22862;BME280;11598;50.652;6.172;2023-09-07T16:33:10;96669.78;;;25.01;48.21
22862;BME280;11598;50.652;6.172;2023-09-07T16:43:10;96676.84;;;24.67;48.54
22862;BME280;11598;50.652;6.172;2023-09-07T16:53:11;96679.00;;;24.51;48.84
22862;BME280;11598;50.652;6.172;2023-09-07T17:03:11;96685.66;;;24.40;49.11
22862;BME280;11598;50.652;6.172;2023-09-07T17:13:11;96679.91;;;24.08;49.21
22862;BME280;11598;50.652;6.172;2023-09-07T17:23:12;96689.94;;;23.84;49.88
22862;BME280;11598;50.652;6.172;2023-09-07T17:33:13;96702.81;;;23.45;51.23
22862;BME280;11598;50.652;6.172;2023-09-07T17:43:13;96709.19;;;23.07;51.57
22862;BME280;11598;50.652;6.172;2023-09-07T17:53:13;96706.09;;;22.59;55.58
22862;BME280;11598;50.652;6.172;2023-09-07T18:03:14;96709.78;;;22.05;59.31
22862;BME280;11598;50.652;6.172;2023-09-07T18:13:14;96711.00;;;21.33;63.85
22862;BME280;11598;50.652;6.172;2023-09-07T18:23:15;96718.13;;;20.62;67.20
22862;BME280;11598;50.652;6.172;2023-09-07T18:33:16;96728.59;;;20.15;67.55
22862;BME280;11598;50.652;6.172;2023-09-07T18:43:17;96728.00;;;19.88;68.29
22862;BME280;11598;50.652;6.172;2023-09-07T18:53:17;96715.44;;;19.65;67.90
22862;BME280;11598;50.652;6.172;2023-09-07T19:03:17;96711.81;;;19.50;67.22
22862;BME280;11598;50.652;6.172;2023-09-07T19:13:18;96714.41;;;19.42;65.54
22862;BME280;11598;50.652;6.172;2023-09-07T19:23:18;96722.69;;;19.55;63.61
22862;BME280;11598;50.652;6.172;2023-09-07T19:33:18;96727.28;;;19.53;64.38
22862;BME280;11598;50.652;6.172;2023-09-07T19:43:19;96725.47;;;19.46;65.07
22862;BME280;11598;50.652;6.172;2023-09-07T19:53:19;96723.31;;;19.33;66.01
22862;BME280;11598;50.652;6.172;2023-09-07T20:03:19;96726.09;;;19.23;66.60
22862;BME280;11598;50.652;6.172;2023-09-07T20:13:20;96725.91;;;19.16;67.34
22862;BME280;11598;50.652;6.172;2023-09-07T20:23:20;96733.59;;;19.01;68.13
22862;BME280;11598;50.652;6.172;2023-09-07T20:33:20;96740.13;;;18.81;69.80
22862;BME280;11598;50.652;6.172;2023-09-07T20:43:21;96738.41;;;18.72;71.04
22862;BME280;11598;50.652;6.172;2023-09-07T20:53:24;96739.88;;;18.66;71.27
22862;BME280;11598;50.652;6.172;2023-09-07T21:03:26;96742.09;;;18.53;72.07
22862;BME280;11598;50.652;6.172;2023-09-07T21:13:26;96737.16;;;18.50;73.61
22862;BME280;11598;50.652;6.172;2023-09-07T21:23:26;96736.00;;;18.44;74.30
22862;BME280;11598;50.652;6.172;2023-09-07T21:33:26;96734.50;;;18.42;75.50
22862;BME280;11598;50.652;6.172;2023-09-07T21:43:27;96731.69;;;18.43;74.92
22862;BME280;11598;50.652;6.172;2023-09-07T21:53:29;96726.16;;;18.54;74.54
22862;BME280;11598;50.652;6.172;2023-09-07T22:03:30;96723.72;;;18.61;73.86
22862;BME280;11598;50.652;6.172;2023-09-07T22:13:30;96722.44;;;18.65;73.20
22862;BME280;11598;50.652;6.172;2023-09-07T22:23:30;96711.72;;;18.58;74.52
22862;BME280;11598;50.652;6.172;2023-09-07T22:33:31;96700.25;;;18.33;77.12
22862;BME280;11598;50.652;6.172;2023-09-07T22:43:31;96699.19;;;18.18;77.90
22862;BME280;11598;50.652;6.172;2023-09-07T22:53:31;96696.72;;;17.90;79.47
22862;BME280;11598;50.652;6.172;2023-09-07T23:03:32;96684.03;;;17.86;80.63
22862;BME280;11598;50.652;6.172;2023-09-07T23:13:32;96687.56;;;18.03;79.77
22862;BME280;11598;50.652;6.172;2023-09-07T23:23:35;96681.19;;;18.05;79.36
22862;BME280;11598;50.652;6.172;2023-09-07T23:33:35;96685.47;;;18.06;79.35
22862;BME280;11598;50.652;6.172;2023-09-07T23:43:36;96688.75;;;18.08;79.78
22862;BME280;11598;50.652;6.172;2023-09-07T23:53:36;96685.97;;;18.10;80.29
